createdAt,value
2024-03-25T00:00:03.585Z,991.50
2024-03-25T00:01:03.580Z,991.50
2024-03-25T00:02:03.573Z,991.53
2024-03-25T00:03:03.565Z,991.56
2024-03-25T00:04:03.556Z,991.54
2024-03-25T00:05:03.530Z,991.51
2024-03-25T00:06:03.523Z,991.53
2024-03-25T00:07:03.512Z,991.55
2024-03-25T00:08:03.504Z,991.49
2024-03-25T00:09:03.486Z,991.50
2024-03-25T00:10:03.487Z,991.54
2024-03-25T00:11:03.477Z,991.56
2024-03-25T00:12:03.464Z,991.55
2024-03-25T00:13:03.448Z,991.55
2024-03-25T00:14:03.445Z,991.55
2024-03-25T00:15:03.430Z,991.53
2024-03-25T00:16:03.425Z,991.53
2024-03-25T00:17:03.417Z,991.52
2024-03-25T00:18:03.399Z,991.55
2024-03-25T00:19:03.394Z,991.51
2024-03-25T00:20:03.375Z,991.51
2024-03-25T00:21:03.369Z,991.51
2024-03-25T00:22:03.353Z,991.56
2024-03-25T00:23:03.353Z,991.56
2024-03-25T00:24:03.334Z,991.51
2024-03-25T00:25:03.341Z,991.52
2024-03-25T00:26:03.308Z,991.55
2024-03-25T00:27:03.310Z,991.49
2024-03-25T00:28:03.304Z,991.51
2024-03-25T00:29:03.283Z,991.50
2024-03-25T00:30:03.281Z,991.49
2024-03-25T00:31:03.265Z,991.45
2024-03-25T00:32:03.256Z,991.44
2024-03-25T00:33:03.242Z,991.41
2024-03-25T00:34:03.232Z,991.41
2024-03-25T00:35:03.213Z,991.43
2024-03-25T00:36:03.204Z,991.43
2024-03-25T00:37:03.199Z,991.41
2024-03-25T00:38:03.192Z,991.45
2024-03-25T00:39:03.180Z,991.42
2024-03-25T00:40:03.162Z,991.43
2024-03-25T00:41:03.163Z,991.45
2024-03-25T00:42:03.142Z,991.45
2024-03-25T00:43:03.134Z,991.44
2024-03-25T00:44:03.120Z,991.45
2024-03-25T00:45:03.127Z,991.46
2024-03-25T00:46:03.113Z,991.46
2024-03-25T00:47:03.092Z,991.49
2024-03-25T00:48:03.084Z,991.48
2024-03-25T00:49:03.105Z,991.46
2024-03-25T00:50:03.071Z,991.48
2024-03-25T00:51:03.051Z,991.49
2024-03-25T00:52:03.037Z,991.53
2024-03-25T00:53:03.023Z,991.47
2024-03-25T00:54:03.015Z,991.50
2024-03-25T00:55:03.005Z,991.49
2024-03-25T00:56:02.993Z,991.51
2024-03-25T00:57:02.985Z,991.47
2024-03-25T00:58:02.974Z,991.46
2024-03-25T00:59:02.968Z,991.41
2024-03-25T01:00:02.956Z,991.40
2024-03-25T01:01:02.948Z,991.42
2024-03-25T01:02:02.944Z,991.42
2024-03-25T01:03:02.930Z,991.40
2024-03-25T01:04:02.908Z,991.32
2024-03-25T01:05:02.899Z,991.37
2024-03-25T01:06:02.887Z,991.37
2024-03-25T01:07:02.879Z,991.39
2024-03-25T01:08:02.896Z,991.34
2024-03-25T01:09:02.859Z,991.38
2024-03-25T01:10:02.871Z,991.35
2024-03-25T01:11:02.833Z,991.35
2024-03-25T01:12:02.952Z,991.36
2024-03-25T01:13:02.862Z,991.35
2024-03-25T01:14:02.817Z,991.32
2024-03-25T01:15:02.857Z,991.27
2024-03-25T01:16:02.868Z,991.27
2024-03-25T01:17:02.908Z,991.25
2024-03-25T01:18:02.828Z,991.31
2024-03-25T01:19:02.775Z,991.24
2024-03-25T01:20:02.860Z,991.23
2024-03-25T01:21:02.902Z,991.24
2024-03-25T01:22:02.830Z,991.20
2024-03-25T01:23:02.860Z,991.22
2024-03-25T01:24:02.792Z,991.19
2024-03-25T01:25:02.741Z,991.22
2024-03-25T01:26:02.687Z,991.21
2024-03-25T01:27:02.704Z,991.20
2024-03-25T01:28:02.660Z,991.15
2024-03-25T01:29:02.645Z,991.15
2024-03-25T01:30:02.641Z,991.14
2024-03-25T01:31:02.628Z,991.15
2024-03-25T01:32:02.617Z,991.08
2024-03-25T01:33:02.612Z,991.11
2024-03-25T01:34:02.624Z,991.12
2024-03-25T01:35:02.587Z,991.05
2024-03-25T01:36:02.587Z,991.04
2024-03-25T01:37:02.572Z,991.06
2024-03-25T01:38:02.550Z,991.06
2024-03-25T01:39:02.546Z,991.09
2024-03-25T01:40:02.533Z,991.11
2024-03-25T01:41:02.539Z,991.13
2024-03-25T01:42:02.522Z,991.11
2024-03-25T01:43:02.510Z,991.11
2024-03-25T01:44:02.489Z,991.18
2024-03-25T01:45:02.487Z,991.10
2024-03-25T01:46:02.482Z,991.10
2024-03-25T01:47:02.462Z,991.09
2024-03-25T01:48:02.444Z,991.08
2024-03-25T01:49:02.440Z,991.05
2024-03-25T01:50:02.473Z,991.02
2024-03-25T01:51:02.494Z,991.01
2024-03-25T01:52:02.421Z,990.98
2024-03-25T01:53:02.395Z,991.06
2024-03-25T01:54:02.389Z,991.05
2024-03-25T01:55:02.373Z,991.01
2024-03-25T01:56:02.370Z,990.99
2024-03-25T01:57:02.361Z,991.00
2024-03-25T01:58:02.346Z,990.94
2024-03-25T01:59:02.334Z,990.97
2024-03-25T02:00:02.321Z,990.98
2024-03-25T02:01:02.316Z,990.97
2024-03-25T02:02:02.303Z,991.01
2024-03-25T02:03:02.285Z,990.95
2024-03-25T02:04:02.290Z,990.94
2024-03-25T02:05:02.277Z,991.00
2024-03-25T02:06:02.278Z,991.01
2024-03-25T02:07:02.252Z,991.01
2024-03-25T02:08:02.240Z,991.03
2024-03-25T02:09:02.243Z,991.03
2024-03-25T02:10:02.215Z,991.01
2024-03-25T02:11:02.216Z,991.01
2024-03-25T02:12:02.199Z,991.02
2024-03-25T02:13:02.189Z,990.97
2024-03-25T02:14:02.182Z,990.99
2024-03-25T02:15:02.175Z,990.95
2024-03-25T02:16:02.157Z,990.96
2024-03-25T02:17:02.145Z,990.93
2024-03-25T02:18:02.139Z,990.95
2024-03-25T02:19:02.129Z,990.88
2024-03-25T02:20:02.123Z,990.92
2024-03-25T02:21:02.138Z,990.92
2024-03-25T02:22:02.115Z,990.91
2024-03-25T02:23:02.098Z,990.93
2024-03-25T02:24:02.085Z,990.88
2024-03-25T02:25:02.063Z,990.88
2024-03-25T02:26:02.061Z,990.92
2024-03-25T02:27:02.049Z,990.93
2024-03-25T02:28:02.044Z,990.87
2024-03-25T02:29:02.019Z,990.87
2024-03-25T02:30:02.013Z,990.89
2024-03-25T02:31:02.007Z,990.86
2024-03-25T02:32:01.988Z,990.84
2024-03-25T02:33:01.982Z,990.84
2024-03-25T02:34:01.969Z,990.85
2024-03-25T02:35:01.963Z,990.87
2024-03-25T02:36:01.954Z,990.81
2024-03-25T02:37:01.938Z,990.83
2024-03-25T02:38:01.948Z,990.83
2024-03-25T02:39:01.917Z,990.85
2024-03-25T02:40:01.913Z,990.79
2024-03-25T02:41:01.898Z,990.79
2024-03-25T02:42:01.895Z,990.76
2024-03-25T02:43:01.876Z,990.78
2024-03-25T02:44:01.894Z,990.76
2024-03-25T02:45:01.875Z,990.78
2024-03-25T02:46:01.851Z,990.74
2024-03-25T02:47:01.848Z,990.71
2024-03-25T02:48:01.830Z,990.73
2024-03-25T02:49:01.822Z,990.73
2024-03-25T02:50:01.811Z,990.67
2024-03-25T02:51:01.795Z,990.71
2024-03-25T02:52:01.790Z,990.64
2024-03-25T02:53:01.785Z,990.67
2024-03-25T02:54:01.782Z,990.60
2024-03-25T02:55:01.756Z,990.61
2024-03-25T02:56:01.752Z,990.59
2024-03-25T02:57:01.733Z,990.56
2024-03-25T02:58:01.717Z,990.54
2024-03-25T02:59:01.733Z,990.55
2024-03-25T03:00:01.703Z,990.60
2024-03-25T03:01:01.693Z,990.60
2024-03-25T03:02:01.736Z,990.56
2024-03-25T03:03:01.679Z,990.55
2024-03-25T03:04:01.664Z,990.52
2024-03-25T03:05:01.716Z,990.53
2024-03-25T03:06:01.647Z,990.53
2024-03-25T03:07:01.632Z,990.50
2024-03-25T03:08:01.642Z,990.54
2024-03-25T03:09:01.613Z,990.55
2024-03-25T03:10:01.665Z,990.55
2024-03-25T03:11:01.586Z,990.56
2024-03-25T03:12:01.584Z,990.52
2024-03-25T03:13:01.568Z,990.51
2024-03-25T03:14:01.575Z,990.54
2024-03-25T03:15:01.549Z,990.50
2024-03-25T03:16:01.535Z,990.49
2024-03-25T03:17:01.548Z,990.49
2024-03-25T03:18:01.513Z,990.47
2024-03-25T03:19:01.529Z,990.44
2024-03-25T03:20:01.515Z,990.47
2024-03-25T03:21:01.499Z,990.51
2024-03-25T03:22:01.477Z,990.53
2024-03-25T03:23:01.517Z,990.57
2024-03-25T03:24:01.453Z,990.54
2024-03-25T03:25:01.460Z,990.55
2024-03-25T03:26:01.470Z,990.53
2024-03-25T03:27:01.426Z,990.55
2024-03-25T03:28:01.411Z,990.55
2024-03-25T03:29:01.422Z,990.54
2024-03-25T03:30:01.390Z,990.56
2024-03-25T03:31:01.386Z,990.52
2024-03-25T03:32:01.399Z,990.53
2024-03-25T03:33:01.361Z,990.53
2024-03-25T03:34:01.350Z,990.51
2024-03-25T03:35:01.359Z,990.50
2024-03-25T03:36:01.332Z,990.48
2024-03-25T03:37:01.326Z,990.47
2024-03-25T03:38:01.339Z,990.48
2024-03-25T03:39:01.305Z,990.46
2024-03-25T03:40:01.299Z,990.45
2024-03-25T03:41:01.336Z,990.47
2024-03-25T03:42:01.332Z,990.46
2024-03-25T03:43:01.257Z,990.43
2024-03-25T03:44:01.287Z,990.45
2024-03-25T03:45:01.234Z,990.48
2024-03-25T03:46:01.228Z,990.49
2024-03-25T03:47:01.265Z,990.51
2024-03-25T03:48:01.217Z,990.55
2024-03-25T03:49:01.201Z,990.54
2024-03-25T03:50:01.187Z,990.55
2024-03-25T03:51:01.173Z,990.59
2024-03-25T03:52:01.173Z,990.53
2024-03-25T03:53:01.197Z,990.55
2024-03-25T03:54:01.154Z,990.53
2024-03-25T03:55:01.129Z,990.54
2024-03-25T03:56:01.170Z,990.56
2024-03-25T03:57:01.117Z,990.53
2024-03-25T03:58:01.131Z,990.55
2024-03-25T03:59:01.111Z,990.58
2024-03-25T04:00:01.080Z,990.57
2024-03-25T04:01:01.080Z,990.57
2024-03-25T04:02:01.095Z,990.56
2024-03-25T04:03:01.054Z,990.57
2024-03-25T04:04:01.050Z,990.56
2024-03-25T04:05:01.055Z,990.55
2024-03-25T04:06:01.024Z,990.50
2024-03-25T04:07:01.007Z,990.53
2024-03-25T04:08:01.018Z,990.51
2024-03-25T04:09:00.998Z,990.59
2024-03-25T04:10:00.972Z,990.55
2024-03-25T04:11:00.979Z,990.51
2024-03-25T04:12:00.957Z,990.53
2024-03-25T04:13:00.967Z,990.47
2024-03-25T04:14:00.964Z,990.47
2024-03-25T04:15:00.938Z,990.47
2024-03-25T04:16:00.913Z,990.45
2024-03-25T04:17:00.954Z,990.49
2024-03-25T04:18:00.908Z,990.47
2024-03-25T04:19:00.888Z,990.51
2024-03-25T04:20:00.883Z,990.48
2024-03-25T04:21:00.865Z,990.46
2024-03-25T04:22:00.853Z,990.42
2024-03-25T04:23:00.839Z,990.39
2024-03-25T04:24:00.830Z,990.34
2024-03-25T04:25:00.820Z,990.35
2024-03-25T04:26:00.871Z,990.31
2024-03-25T04:27:00.836Z,990.24
2024-03-25T04:28:00.803Z,990.28
2024-03-25T04:29:00.788Z,990.31
2024-03-25T04:30:00.799Z,990.32
2024-03-25T04:31:00.773Z,990.30
2024-03-25T04:32:00.755Z,990.29
2024-03-25T04:33:00.747Z,990.31
2024-03-25T04:34:00.737Z,990.30
2024-03-25T04:35:00.735Z,990.32
2024-03-25T04:36:00.716Z,990.31
2024-03-25T04:37:00.716Z,990.33
2024-03-25T04:38:00.703Z,990.31
2024-03-25T04:39:00.706Z,990.31
2024-03-25T04:40:00.668Z,990.33
2024-03-25T04:41:00.704Z,990.30
2024-03-25T04:42:00.658Z,990.32
2024-03-25T04:43:00.663Z,990.24
2024-03-25T04:44:00.648Z,990.29
2024-03-25T04:45:00.660Z,990.25
2024-03-25T04:46:00.645Z,990.26
2024-03-25T04:47:00.629Z,990.21
2024-03-25T04:48:00.588Z,990.29
2024-03-25T04:49:00.589Z,990.26
2024-03-25T04:50:00.612Z,990.27
2024-03-25T04:51:00.576Z,990.24
2024-03-25T04:52:00.572Z,990.30
2024-03-25T04:53:00.554Z,990.31
2024-03-25T04:54:00.473Z,990.33
2024-03-25T04:55:00.518Z,990.35
2024-03-25T04:56:00.548Z,990.31
2024-03-25T04:57:00.452Z,990.40
2024-03-25T04:58:00.432Z,990.37
2024-03-25T04:59:00.490Z,990.35
2024-03-25T05:00:00.461Z,990.37
2024-03-25T05:01:00.460Z,990.36
2024-03-25T05:02:00.435Z,990.39
2024-03-25T05:03:00.430Z,990.39
2024-03-25T05:04:01.462Z,990.38
2024-03-25T05:05:00.375Z,990.40
2024-03-25T05:06:00.363Z,990.40
2024-03-25T05:07:00.351Z,990.40
2024-03-25T05:08:00.390Z,990.40
2024-03-25T05:09:00.379Z,990.45
2024-03-25T05:10:00.768Z,990.46
2024-03-25T05:11:00.333Z,990.41
2024-03-25T05:12:00.287Z,990.45
2024-03-25T05:13:00.278Z,990.44
2024-03-25T05:14:00.263Z,990.44
2024-03-25T05:15:00.268Z,990.46
2024-03-25T05:16:00.238Z,990.45
2024-03-25T05:17:00.252Z,990.46
2024-03-25T05:18:00.256Z,990.43
2024-03-25T05:19:00.211Z,990.46
2024-03-25T05:20:00.287Z,990.43
2024-03-25T05:21:00.194Z,990.35
2024-03-25T05:22:00.184Z,990.45
2024-03-25T05:23:00.247Z,990.42
2024-03-25T05:24:00.174Z,990.46
2024-03-25T05:25:00.240Z,990.43
2024-03-25T05:26:00.146Z,990.48
2024-03-25T05:27:00.141Z,990.46
2024-03-25T05:28:00.142Z,990.47
2024-03-25T05:29:00.115Z,990.44
2024-03-25T05:30:00.182Z,990.42
2024-03-25T05:31:00.093Z,990.44
2024-03-25T05:32:00.112Z,990.47
2024-03-25T05:33:00.076Z,990.46
2024-03-25T05:34:00.095Z,990.45
2024-03-25T05:35:00.050Z,990.48
2024-03-25T05:36:00.049Z,990.46
2024-03-25T05:37:00.044Z,990.43
2024-03-25T05:38:00.017Z,990.42
2024-03-25T05:39:00.000Z,990.44
2024-03-25T05:39:59.991Z,990.45
2024-03-25T05:41:00.039Z,990.50
2024-03-25T05:41:59.972Z,990.50
2024-03-25T05:42:59.956Z,990.51
2024-03-25T05:43:59.981Z,990.53
2024-03-25T05:44:59.947Z,990.53
2024-03-25T05:45:59.934Z,990.52
2024-03-25T05:46:59.919Z,990.50
2024-03-25T05:47:59.911Z,990.46
2024-03-25T05:48:59.905Z,990.46
2024-03-25T05:49:59.920Z,990.43
2024-03-25T05:50:59.878Z,990.41
2024-03-25T05:51:59.862Z,990.34
2024-03-25T05:52:59.852Z,990.38
2024-03-25T05:53:59.845Z,990.35
2024-03-25T05:54:59.840Z,990.36
2024-03-25T05:55:59.822Z,990.33
2024-03-25T05:56:59.829Z,990.33
2024-03-25T05:57:59.813Z,990.36
2024-03-25T05:58:59.793Z,990.39
2024-03-25T05:59:59.787Z,990.43
2024-03-25T06:00:59.774Z,990.39
2024-03-25T06:01:59.766Z,990.38
2024-03-25T06:02:59.746Z,990.33
2024-03-25T06:03:59.748Z,990.33
2024-03-25T06:04:59.738Z,990.38
2024-03-25T06:05:59.752Z,990.37
2024-03-25T06:06:59.711Z,990.35
2024-03-25T06:07:59.713Z,990.38
2024-03-25T06:08:59.702Z,990.40
2024-03-25T06:09:59.690Z,990.46
2024-03-25T06:10:59.669Z,990.44
2024-03-25T06:11:59.669Z,990.39
2024-03-25T06:12:59.650Z,990.38
2024-03-25T06:13:59.646Z,990.33
2024-03-25T06:14:59.631Z,990.33
2024-03-25T06:15:59.635Z,990.33
2024-03-25T06:16:59.610Z,990.31
2024-03-25T06:17:59.601Z,990.32
2024-03-25T06:18:59.588Z,990.25
2024-03-25T06:19:59.580Z,990.24
2024-03-25T06:20:59.576Z,990.26
2024-03-25T06:21:59.680Z,990.26
2024-03-25T06:22:59.547Z,990.27
2024-03-25T06:23:59.543Z,990.26
2024-03-25T06:24:59.521Z,990.25
2024-03-25T06:25:59.540Z,990.27
2024-03-25T06:26:59.516Z,990.28
2024-03-25T06:27:59.493Z,990.29
2024-03-25T06:28:59.482Z,990.30
2024-03-25T06:29:59.476Z,990.29
2024-03-25T06:30:59.464Z,990.33
2024-03-25T06:31:59.455Z,990.34
2024-03-25T06:32:59.448Z,990.32
2024-03-25T06:33:59.432Z,990.27
2024-03-25T06:34:59.424Z,990.28
2024-03-25T06:35:59.419Z,990.29
2024-03-25T06:36:59.398Z,990.29
2024-03-25T06:37:59.447Z,990.35
2024-03-25T06:38:59.396Z,990.34
2024-03-25T06:39:59.371Z,990.39
2024-03-25T06:40:59.359Z,990.40
2024-03-25T06:41:59.351Z,990.32
2024-03-25T06:42:59.344Z,990.34
2024-03-25T06:43:59.333Z,990.35
2024-03-25T06:44:59.315Z,990.39
2024-03-25T06:45:59.318Z,990.40
2024-03-25T06:46:59.297Z,990.45
2024-03-25T06:47:59.293Z,990.44
2024-03-25T06:48:59.281Z,990.46
2024-03-25T06:49:59.270Z,990.49
2024-03-25T06:50:59.266Z,990.44
2024-03-25T06:51:59.260Z,990.40
2024-03-25T06:52:59.236Z,990.36
2024-03-25T06:53:59.244Z,990.41
2024-03-25T06:54:59.225Z,990.41
2024-03-25T06:55:59.207Z,990.44
2024-03-25T06:56:59.197Z,990.42
2024-03-25T06:57:59.199Z,990.46
2024-03-25T06:58:59.203Z,990.46
2024-03-25T07:00:00.550Z,990.39
2024-03-25T07:00:59.155Z,990.39
2024-03-25T07:01:59.142Z,990.44
2024-03-25T07:02:59.139Z,990.41
2024-03-25T07:03:59.127Z,990.41
2024-03-25T07:04:59.102Z,990.36
2024-03-25T07:05:59.108Z,990.33
2024-03-25T07:06:59.093Z,990.32
2024-03-25T07:07:59.091Z,990.33
2024-03-25T07:08:59.079Z,990.31
2024-03-25T07:09:59.082Z,990.30
2024-03-25T07:10:59.038Z,990.27
2024-03-25T07:11:59.032Z,990.30
2024-03-25T07:12:59.024Z,990.22
2024-03-25T07:13:59.019Z,990.20
2024-03-25T07:14:59.007Z,990.20
2024-03-25T07:15:58.993Z,990.17
2024-03-25T07:16:58.983Z,990.19
2024-03-25T07:17:58.977Z,990.20
2024-03-25T07:18:58.974Z,990.19
2024-03-25T07:19:58.952Z,990.27
2024-03-25T07:20:58.944Z,990.25
2024-03-25T07:21:58.948Z,990.18
2024-03-25T07:22:58.919Z,990.19
2024-03-25T07:23:58.905Z,990.21
2024-03-25T07:24:58.905Z,990.14
2024-03-25T07:25:58.909Z,990.15
2024-03-25T07:26:58.895Z,990.17
2024-03-25T07:27:58.866Z,990.18
2024-03-25T07:28:58.849Z,990.21
2024-03-25T07:29:58.844Z,990.20
2024-03-25T07:30:58.840Z,990.13
2024-03-25T07:31:58.820Z,990.17
2024-03-25T07:32:58.816Z,990.18
2024-03-25T07:33:58.807Z,990.17
2024-03-25T07:34:58.781Z,990.19
2024-03-25T07:35:58.772Z,990.14
2024-03-25T07:36:58.766Z,990.15
2024-03-25T07:37:58.759Z,990.20
2024-03-25T07:38:58.751Z,990.20
2024-03-25T07:39:58.751Z,990.24
2024-03-25T07:40:58.786Z,990.24
2024-03-25T07:41:58.743Z,990.29
2024-03-25T07:42:58.698Z,990.27
2024-03-25T07:43:58.694Z,990.28
2024-03-25T07:44:58.681Z,990.25
2024-03-25T07:45:58.686Z,990.22
2024-03-25T07:46:58.661Z,990.25
2024-03-25T07:47:58.650Z,990.24
2024-03-25T07:48:58.638Z,990.25
2024-03-25T07:49:58.629Z,990.20
2024-03-25T07:50:58.615Z,990.23
2024-03-25T07:51:58.603Z,990.23
2024-03-25T07:52:58.581Z,990.25
2024-03-25T07:53:58.585Z,990.22
2024-03-25T07:54:58.592Z,990.21
2024-03-25T07:55:58.555Z,990.16
2024-03-25T07:56:58.752Z,990.17
2024-03-25T07:57:58.578Z,990.18
2024-03-25T07:58:58.583Z,990.21
2024-03-25T07:59:58.521Z,990.18
2024-03-25T08:00:58.529Z,990.21
2024-03-25T08:01:58.518Z,990.20
2024-03-25T08:02:58.499Z,990.16
2024-03-25T08:03:58.472Z,990.17
2024-03-25T08:04:58.463Z,990.15
2024-03-25T08:05:58.454Z,990.12
2024-03-25T08:06:58.441Z,990.10
2024-03-25T08:07:58.431Z,990.09
2024-03-25T08:08:58.448Z,990.03
2024-03-25T08:09:58.484Z,990.14
2024-03-25T08:10:58.410Z,990.03
2024-03-25T08:11:58.386Z,989.99
2024-03-25T08:12:58.374Z,990.00
2024-03-25T08:13:58.389Z,989.98
2024-03-25T08:14:58.428Z,990.02
2024-03-25T08:15:58.349Z,990.02
2024-03-25T08:16:58.368Z,990.00
2024-03-25T08:17:58.322Z,989.95
2024-03-25T08:18:58.310Z,989.95
2024-03-25T08:19:58.319Z,989.93
2024-03-25T08:20:58.746Z,989.91
2024-03-25T08:21:58.325Z,989.88
2024-03-25T08:22:58.269Z,989.87
2024-03-25T08:23:58.256Z,989.84
2024-03-25T08:24:58.243Z,989.83
2024-03-25T08:25:58.234Z,989.84
2024-03-25T08:26:58.224Z,989.82
2024-03-25T08:27:58.215Z,989.82
2024-03-25T08:28:58.204Z,989.82
2024-03-25T08:29:58.222Z,989.83
2024-03-25T08:30:58.248Z,989.82
2024-03-25T08:31:58.191Z,989.85
2024-03-25T08:32:58.171Z,989.79
2024-03-25T08:33:58.150Z,989.78
2024-03-25T08:34:58.159Z,989.79
2024-03-25T08:35:58.120Z,989.81
2024-03-25T08:36:58.120Z,989.78
2024-03-25T08:37:58.190Z,989.78
2024-03-25T08:38:58.097Z,989.77
2024-03-25T08:39:58.113Z,989.73
2024-03-25T08:40:58.163Z,989.73
2024-03-25T08:41:58.062Z,989.71
2024-03-25T08:42:58.048Z,989.71
2024-03-25T08:43:58.032Z,989.69
2024-03-25T08:44:58.031Z,989.66
2024-03-25T08:45:58.041Z,989.68
2024-03-25T08:46:58.013Z,989.65
2024-03-25T08:47:58.018Z,989.63
2024-03-25T08:48:57.979Z,989.58
2024-03-25T08:49:58.034Z,989.53
2024-03-25T08:50:57.978Z,989.47
2024-03-25T08:51:57.955Z,989.48
2024-03-25T08:52:57.942Z,989.40
2024-03-25T08:53:57.973Z,989.44
2024-03-25T08:54:57.917Z,989.45
2024-03-25T08:55:57.911Z,989.45
2024-03-25T08:56:57.949Z,989.41
2024-03-25T08:57:58.023Z,989.38
2024-03-25T08:58:57.905Z,989.33
2024-03-25T08:59:57.876Z,989.35
2024-03-25T09:00:57.871Z,989.31
2024-03-25T09:01:57.864Z,989.31
2024-03-25T09:02:57.841Z,989.26
2024-03-25T09:03:57.818Z,989.29
2024-03-25T09:04:57.825Z,989.31
2024-03-25T09:05:57.815Z,989.27
2024-03-25T09:06:57.829Z,989.24
2024-03-25T09:07:58.734Z,989.23
2024-03-25T09:08:57.767Z,989.24
2024-03-25T09:09:57.772Z,989.17
2024-03-25T09:10:57.747Z,989.16
2024-03-25T09:11:57.778Z,989.11
2024-03-25T09:12:57.727Z,989.10
2024-03-25T09:13:57.718Z,989.07
2024-03-25T09:14:57.719Z,989.08
2024-03-25T09:15:57.734Z,989.10
2024-03-25T09:16:57.694Z,989.05
2024-03-25T09:17:57.706Z,989.01
2024-03-25T09:18:57.656Z,989.01
2024-03-25T09:19:57.657Z,988.94
2024-03-25T09:20:57.697Z,988.92
2024-03-25T09:21:57.638Z,988.94
2024-03-25T09:22:57.670Z,988.89
2024-03-25T09:23:57.621Z,988.91
2024-03-25T09:24:57.591Z,988.88
2024-03-25T09:25:57.584Z,988.83
2024-03-25T09:26:57.575Z,988.90
2024-03-25T09:27:57.571Z,988.80
2024-03-25T09:28:57.579Z,988.81
2024-03-25T09:29:57.554Z,988.74
2024-03-25T09:30:57.529Z,988.75
2024-03-25T09:31:57.534Z,988.70
2024-03-25T09:32:57.506Z,988.71
2024-03-25T09:33:57.520Z,988.62
2024-03-25T09:34:57.633Z,988.63
2024-03-25T09:35:57.483Z,988.60
2024-03-25T09:36:57.473Z,988.56
2024-03-25T09:37:57.499Z,988.63
2024-03-25T09:38:57.464Z,988.58
2024-03-25T09:39:57.487Z,988.56
2024-03-25T09:40:57.423Z,988.54
2024-03-25T09:41:57.474Z,988.51
2024-03-25T09:42:57.422Z,988.51
2024-03-25T09:43:57.415Z,988.49
2024-03-25T09:44:57.426Z,988.55
2024-03-25T09:45:57.405Z,988.56
2024-03-25T09:46:57.377Z,988.58
2024-03-25T09:47:57.362Z,988.54
2024-03-25T09:48:57.391Z,988.52
2024-03-25T09:49:57.364Z,988.53
2024-03-25T09:50:57.346Z,988.49
2024-03-25T09:51:57.311Z,988.48
2024-03-25T09:52:57.309Z,988.52
2024-03-25T09:53:57.300Z,988.50
2024-03-25T09:54:57.295Z,988.52
2024-03-25T09:55:57.261Z,988.52
2024-03-25T09:56:57.291Z,988.46
2024-03-25T09:57:57.290Z,988.40
2024-03-25T09:58:57.233Z,988.40
2024-03-25T09:59:57.219Z,988.28
2024-03-25T10:00:57.227Z,988.36
2024-03-25T10:01:57.217Z,988.33
2024-03-25T10:02:57.185Z,988.29
2024-03-25T10:03:57.197Z,988.27
2024-03-25T10:04:57.175Z,988.29
2024-03-25T10:05:57.192Z,988.27
2024-03-25T10:06:57.158Z,988.24
2024-03-25T10:07:57.137Z,988.24
2024-03-25T10:08:57.161Z,988.20
2024-03-25T10:09:57.112Z,988.21
2024-03-25T10:10:57.102Z,988.23
2024-03-25T10:11:57.088Z,988.19
2024-03-25T10:12:57.116Z,988.22
2024-03-25T10:13:57.063Z,988.22
2024-03-25T10:14:57.079Z,988.22
2024-03-25T10:15:57.044Z,988.21
2024-03-25T10:16:57.036Z,988.15
2024-03-25T10:17:57.057Z,988.10
2024-03-25T10:18:57.052Z,988.06
2024-03-25T10:19:56.994Z,988.06
2024-03-25T10:20:56.993Z,988.06
2024-03-25T10:21:56.996Z,987.97
2024-03-25T10:22:56.966Z,987.97
2024-03-25T10:23:56.974Z,988.01
2024-03-25T10:24:56.957Z,987.96
2024-03-25T10:25:56.940Z,987.93
2024-03-25T10:26:56.921Z,987.90
2024-03-25T10:27:56.933Z,987.88
2024-03-25T10:28:56.904Z,987.89
2024-03-25T10:29:57.772Z,987.88
2024-03-25T10:30:56.883Z,987.82
2024-03-25T10:31:56.934Z,987.84
2024-03-25T10:32:56.858Z,987.86
2024-03-25T10:33:56.846Z,987.87
2024-03-25T10:34:58.751Z,987.87
2024-03-25T10:35:56.822Z,987.88
2024-03-25T10:36:56.821Z,987.85
2024-03-25T10:37:56.818Z,987.87
2024-03-25T10:38:56.808Z,987.82
2024-03-25T10:39:56.886Z,987.77
2024-03-25T10:40:56.772Z,987.77
2024-03-25T10:41:56.762Z,987.75
2024-03-25T10:42:56.767Z,987.77
2024-03-25T10:43:56.762Z,987.73
2024-03-25T10:44:56.804Z,987.79
2024-03-25T10:45:56.724Z,987.79
2024-03-25T10:46:56.719Z,987.72
2024-03-25T10:47:56.714Z,987.75
2024-03-25T10:48:56.693Z,987.73
2024-03-25T10:49:56.755Z,987.68
2024-03-25T10:50:56.664Z,987.71
2024-03-25T10:51:56.655Z,987.68
2024-03-25T10:52:56.661Z,987.62
2024-03-25T10:53:56.699Z,987.60
2024-03-25T10:54:56.616Z,987.55
2024-03-25T10:55:56.610Z,987.55
2024-03-25T10:56:56.629Z,987.54
2024-03-25T10:57:56.598Z,987.50
2024-03-25T10:58:56.581Z,987.52
2024-03-25T10:59:56.614Z,987.54
2024-03-25T11:00:56.563Z,987.53
2024-03-25T11:01:56.542Z,987.48
2024-03-25T11:02:56.533Z,987.45
2024-03-25T11:03:56.521Z,987.38
2024-03-25T11:04:56.526Z,987.37
2024-03-25T11:05:56.555Z,987.34
2024-03-25T11:06:56.521Z,987.31
2024-03-25T11:07:56.481Z,987.29
2024-03-25T11:08:56.554Z,987.35
2024-03-25T11:09:56.528Z,987.34
2024-03-25T11:10:56.462Z,987.29
2024-03-25T11:11:56.437Z,987.28
2024-03-25T11:12:56.493Z,987.22
2024-03-25T11:13:56.429Z,987.24
2024-03-25T11:14:56.410Z,987.19
2024-03-25T11:15:56.394Z,987.16
2024-03-25T11:16:56.385Z,987.16
2024-03-25T11:17:56.371Z,987.18
2024-03-25T11:18:56.370Z,987.09
2024-03-25T11:19:56.401Z,987.11
2024-03-25T11:20:56.347Z,987.05
2024-03-25T11:21:56.329Z,987.08
2024-03-25T11:22:56.324Z,987.08
2024-03-25T11:23:56.308Z,986.99
2024-03-25T11:24:56.302Z,986.95
2024-03-25T11:25:56.302Z,986.89
2024-03-25T11:26:56.283Z,986.79
2024-03-25T11:27:56.267Z,986.81
2024-03-25T11:28:56.257Z,986.82
2024-03-25T11:29:56.268Z,986.79
2024-03-25T11:30:56.251Z,986.76
2024-03-25T11:31:56.223Z,986.75
2024-03-25T11:32:56.212Z,986.76
2024-03-25T11:33:56.200Z,986.74
2024-03-25T11:34:56.191Z,986.77
2024-03-25T11:35:56.185Z,986.75
2024-03-25T11:36:56.170Z,986.76
2024-03-25T11:37:56.155Z,986.80
2024-03-25T11:38:56.149Z,986.67
2024-03-25T11:39:56.132Z,986.63
2024-03-25T11:40:56.125Z,986.63
2024-03-25T11:41:56.145Z,986.65
2024-03-25T11:42:56.111Z,986.61
2024-03-25T11:43:56.140Z,986.59
2024-03-25T11:45:00.958Z,986.60
2024-03-25T11:45:56.070Z,986.61
2024-03-25T11:46:56.059Z,986.56
2024-03-25T11:47:56.045Z,986.50
2024-03-25T11:48:56.036Z,986.53
2024-03-25T11:49:56.028Z,986.48
2024-03-25T11:50:56.015Z,986.49
2024-03-25T11:51:56.003Z,986.48
2024-03-25T11:52:55.989Z,986.46
2024-03-25T11:53:55.983Z,986.51
2024-03-25T11:54:55.979Z,986.44
2024-03-25T11:55:55.964Z,986.43
2024-03-25T11:56:55.951Z,986.42
2024-03-25T11:57:55.967Z,986.40
2024-03-25T11:58:55.936Z,986.32
2024-03-25T11:59:55.916Z,986.18
2024-03-25T12:00:55.910Z,986.22
2024-03-25T12:01:55.903Z,986.20
2024-03-25T12:02:55.880Z,986.11
2024-03-25T12:03:55.871Z,986.15
2024-03-25T12:04:55.861Z,986.12
2024-03-25T12:05:55.855Z,986.15
2024-03-25T12:06:55.843Z,986.05
2024-03-25T12:07:55.832Z,985.97
2024-03-25T12:08:55.820Z,986.14
2024-03-25T12:09:55.809Z,986.04
2024-03-25T12:10:55.803Z,986.04
2024-03-25T12:11:55.794Z,986.01
2024-03-25T12:12:55.775Z,985.86
2024-03-25T12:13:55.784Z,985.93
2024-03-25T12:14:55.763Z,986.03
2024-03-25T12:15:55.762Z,985.94
2024-03-25T12:16:55.738Z,985.94
2024-03-25T12:17:55.728Z,985.83
2024-03-25T12:18:55.715Z,985.94
2024-03-25T12:19:55.700Z,985.84
2024-03-25T12:20:55.693Z,985.86
2024-03-25T12:21:55.688Z,985.83
2024-03-25T12:22:55.679Z,985.87
2024-03-25T12:23:55.662Z,985.76
2024-03-25T12:24:55.654Z,985.68
2024-03-25T12:25:55.633Z,985.70
2024-03-25T12:26:55.623Z,985.68
2024-03-25T12:27:55.638Z,985.65